KOZR/OZR METAR and TAF weather

Enter ICAO airport designator
Station Type Date Time Source
KOZR METAR 2021/05/15 01:56 UTC NOAA

KOZR 150156Z AUTO 05004KT 10SM CLR 18/10 A3019 RMK AO2 SLP224 T01800101


Station Type Date Time Source
KOZR Decoded METAR 2021/05/15 01:56 UTC NOAA

Cairns Army Air Field / Ozark, AL, United States (KOZR) 31-17N 085-43W
May 14, 2021 - 09:56 PM EDT / 2021.05.15 0156 UTC
Wind: from the NE (050 degrees) at 5 MPH (4 KT):0
Visibility: 10 mile(s):0
Sky conditions: clear
Temperature: 64.4 F (18.0 C)
Dew Point: 50.2 F (10.1 C)
Relative Humidity: 59%
Pressure (altimeter): 30.19 in. Hg (1022 hPa)
ob: KOZR 150156Z AUTO 05004KT 10SM CLR 18/10 A3019 RMK AO2 SLP224 T01800101
cycle: 2

Station Type Date Time Source
KOZR TAF 2021/05/14 16:57 UTC NOAA

TAF KOZR 141600Z 1416/1522 03007KT 9999 FEW060 QNH3017INS TX24/1420Z TN15/1511Z

Example: see airport list